createdAt,value
2022-09-17T00:01:15.536Z,101437.50
2022-09-17T00:06:21.071Z,101436.53
2022-09-17T00:11:26.599Z,101441.91
2022-09-17T00:16:32.290Z,101460.50
2022-09-17T00:21:36.914Z,101469.28
2022-09-17T00:26:42.585Z,101456.94
2022-09-17T00:31:45.658Z,101442.84
2022-09-17T00:36:50.123Z,101444.75
2022-09-17T00:41:53.137Z,101456.19
2022-09-17T00:46:56.143Z,101442.84
2022-09-17T00:52:05.701Z,101452.41
2022-09-17T00:57:09.028Z,101452.28
2022-09-17T01:02:12.615Z,101451.44
2022-09-17T01:07:29.816Z,101453.22
2022-09-17T01:12:49.755Z,101457.69
2022-09-17T01:18:09.116Z,101471.66
2022-09-17T01:23:50.788Z,101477.72
2022-09-17T01:29:09.619Z,101467.03
2022-09-17T01:34:21.539Z,101452.91
2022-09-17T01:39:33.907Z,101436.91
2022-09-17T01:44:42.029Z,101448.16
2022-09-17T01:49:47.003Z,101459.34
2022-09-17T01:54:55.453Z,101463.84
2022-09-17T02:00:02.559Z,101472.78
2022-09-17T02:05:20.651Z,101471.41
2022-09-17T02:10:28.473Z,101481.63
2022-09-17T02:15:39.463Z,101483.97
2022-09-17T02:20:47.387Z,101490.72
2022-09-17T02:25:54.424Z,101485.50
2022-09-17T02:30:57.474Z,101483.88
2022-09-17T02:36:02.551Z,101483.88
2022-09-17T02:41:14.815Z,101489.81
2022-09-17T02:46:38.934Z,101491.63
2022-09-17T02:51:52.173Z,101491.88
2022-09-17T02:57:07.032Z,101489.38
2022-09-17T03:02:20.000Z,101493.78
2022-09-17T03:07:25.005Z,101493.63
2022-09-17T03:12:28.416Z,101489.13
2022-09-17T03:17:31.610Z,101508.53
2022-09-17T03:22:35.957Z,101502.38
2022-09-17T03:27:39.111Z,101486.69
2022-09-17T03:32:43.767Z,101473.38
2022-09-17T03:37:48.489Z,101469.69
2022-09-17T03:42:51.394Z,101483.59
2022-09-17T03:47:54.315Z,101481.50
2022-09-17T03:52:58.646Z,101482.53
2022-09-17T03:58:01.959Z,101500.84
2022-09-17T04:03:05.401Z,101500.75
2022-09-17T04:08:12.142Z,101493.97
2022-09-17T04:13:18.327Z,101505.75
2022-09-17T04:18:21.289Z,101499.97
2022-09-17T04:23:25.668Z,101495.50
2022-09-17T04:28:28.920Z,101501.56
2022-09-17T04:33:32.128Z,101499.34
2022-09-17T04:38:36.444Z,101490.13
2022-09-17T04:43:39.371Z,101496.72
2022-09-17T04:48:42.287Z,101495.81
2022-09-17T04:53:46.931Z,101496.25
2022-09-17T04:58:49.886Z,101503.75
2022-09-17T05:03:53.084Z,101489.72
2022-09-17T05:08:57.627Z,101499.41
2022-09-17T05:14:00.516Z,101531.28
2022-09-17T05:19:06.560Z,101558.88
2022-09-17T05:24:10.874Z,101567.84
2022-09-17T05:29:13.962Z,101554.78
2022-09-17T05:34:18.126Z,101543.56
2022-09-17T05:39:25.491Z,101533.56
2022-09-17T05:44:28.456Z,101532.50
2022-09-17T05:49:31.666Z,101544.00
2022-09-17T05:54:36.204Z,101548.09
2022-09-17T05:59:39.076Z,101548.09
2022-09-17T06:04:42.168Z,101553.13
2022-09-17T06:09:46.495Z,101540.81
2022-09-17T06:14:49.591Z,101540.69
2022-09-17T06:19:52.531Z,101553.50
2022-09-17T06:24:57.136Z,101557.06
2022-09-17T06:30:00.041Z,101560.06
2022-09-17T06:35:03.356Z,101558.69
2022-09-17T06:40:09.504Z,101567.47
2022-09-17T06:45:16.518Z,101591.56
2022-09-17T06:50:20.369Z,101577.88
2022-09-17T06:55:26.546Z,101567.63
2022-09-17T07:00:30.171Z,101571.66
2022-09-17T07:05:33.808Z,101582.75
2022-09-17T07:10:39.745Z,101579.81
2022-09-17T07:15:42.676Z,101585.47
2022-09-17T07:20:45.686Z,101573.00
2022-09-17T07:25:53.972Z,101575.28
2022-09-17T07:30:57.851Z,101575.28
2022-09-17T07:36:02.742Z,101555.97
2022-09-17T07:41:12.577Z,101566.81
2022-09-17T07:46:17.233Z,101570.03
2022-09-17T07:51:22.956Z,101565.28
2022-09-17T07:56:28.444Z,101578.41
2022-09-17T08:01:34.239Z,101578.75
2022-09-17T08:06:40.454Z,101573.72
2022-09-17T08:11:55.621Z,101566.03
2022-09-17T08:16:59.212Z,101570.75
2022-09-17T08:22:02.474Z,101573.28
2022-09-17T08:27:06.809Z,101587.13
2022-09-17T08:32:13.753Z,101577.34
2022-09-17T08:37:16.981Z,101585.06
2022-09-17T08:42:27.972Z,101595.78
2022-09-17T08:47:36.793Z,101607.31
2022-09-17T08:52:54.358Z,101608.44
2022-09-17T08:58:06.575Z,101623.16
2022-09-17T09:03:26.362Z,101609.88
2022-09-17T09:08:33.358Z,101606.28
2022-09-17T09:13:42.224Z,101610.75
2022-09-17T09:18:47.176Z,101607.19
2022-09-17T09:23:56.993Z,101599.31
2022-09-17T09:29:10.374Z,101611.91
2022-09-17T09:34:15.110Z,101607.00
2022-09-17T09:39:25.845Z,101620.81
2022-09-17T09:44:30.430Z,101638.94
2022-09-17T09:49:54.844Z,101654.53
2022-09-17T09:55:07.827Z,101651.00
2022-09-17T10:00:35.250Z,101629.25
2022-09-17T10:05:40.940Z,101628.59
2022-09-17T10:10:56.771Z,101630.31
2022-09-17T10:16:18.497Z,101613.97
2022-09-17T10:21:26.695Z,101602.41
2022-09-17T10:26:33.340Z,101601.19
2022-09-17T10:31:50.757Z,101611.97
2022-09-17T10:36:55.465Z,101604.03
2022-09-17T10:41:59.507Z,101615.75
2022-09-17T10:47:13.963Z,101596.72
2022-09-17T10:52:26.053Z,101591.19
2022-09-17T10:57:41.674Z,101593.81
2022-09-17T11:03:19.380Z,101577.59
2022-09-17T11:08:29.810Z,101560.22
2022-09-17T11:13:41.567Z,101558.00
2022-09-17T11:18:53.378Z,101562.19
2022-09-17T11:24:40.811Z,101563.44
2022-09-17T11:30:05.701Z,101570.03
2022-09-17T11:35:13.570Z,101560.88
2022-09-17T11:40:22.558Z,101562.22
2022-09-17T11:45:28.569Z,101562.94
2022-09-17T11:50:41.676Z,101551.25
2022-09-17T11:55:51.422Z,101543.84
2022-09-17T12:01:02.181Z,101540.97
2022-09-17T12:06:10.890Z,101540.28
2022-09-17T12:11:18.466Z,101538.31
2022-09-17T12:16:26.604Z,101540.81
2022-09-17T12:21:38.887Z,101547.25
2022-09-17T12:26:55.167Z,101535.81
2022-09-17T12:32:05.999Z,101551.50
2022-09-17T12:37:18.650Z,101536.44
2022-09-17T12:42:35.648Z,101546.66
2022-09-17T12:48:03.099Z,101542.38
2022-09-17T12:53:23.525Z,101541.66
2022-09-17T12:58:39.053Z,101554.56
2022-09-17T13:03:46.578Z,101544.31
2022-09-17T13:09:11.413Z,101539.88
2022-09-17T13:14:23.614Z,101539.16
2022-09-17T13:19:36.927Z,101528.25
2022-09-17T13:24:47.297Z,101546.03
2022-09-17T13:30:00.502Z,101549.97
2022-09-17T13:35:49.378Z,101524.84
2022-09-17T13:41:14.293Z,101534.31
2022-09-17T13:46:24.073Z,101551.16
2022-09-17T13:51:55.406Z,101546.53
2022-09-17T13:57:12.150Z,101552.56
2022-09-17T14:02:35.369Z,101567.78
2022-09-17T14:07:49.003Z,101557.13
2022-09-17T14:13:21.635Z,101557.78
2022-09-17T14:18:45.810Z,101557.84
2022-09-17T14:23:55.219Z,101557.84
2022-09-17T14:29:08.876Z,101572.25
2022-09-17T14:34:20.078Z,101553.34
2022-09-17T14:39:25.060Z,101562.75
2022-09-17T14:44:34.628Z,101550.69
2022-09-17T14:49:38.495Z,101565.16
2022-09-17T14:54:44.865Z,101567.63
2022-09-17T14:59:52.352Z,101568.56
2022-09-17T15:04:55.475Z,101564.78
2022-09-17T15:10:09.448Z,101564.25
2022-09-17T15:15:20.450Z,101563.75
2022-09-17T15:20:26.044Z,101580.56
2022-09-17T15:25:32.431Z,101577.94
2022-09-17T15:30:39.156Z,101568.22
2022-09-17T15:35:42.186Z,101589.38
2022-09-17T15:40:48.774Z,101572.06
2022-09-17T15:45:53.004Z,101580.84
2022-09-17T15:50:57.106Z,101567.75
2022-09-17T15:56:03.955Z,101581.31
2022-09-17T16:01:51.663Z,101566.34
2022-09-17T16:07:18.835Z,101567.75
2022-09-17T16:12:23.547Z,101575.88
2022-09-17T16:17:36.601Z,101577.09
2022-09-17T16:22:40.965Z,101571.78
2022-09-17T16:27:48.619Z,101595.34
2022-09-17T16:32:51.981Z,101612.75
2022-09-17T16:37:58.009Z,101609.06
2022-09-17T16:43:01.879Z,101638.63
2022-09-17T16:48:05.641Z,101625.09
2022-09-17T16:53:10.441Z,101634.88
2022-09-17T16:58:13.423Z,101636.03
2022-09-17T17:03:16.836Z,101633.44
2022-09-17T17:08:21.220Z,101624.53
2022-09-17T17:13:27.938Z,101628.56
2022-09-17T17:18:31.603Z,101632.78
2022-09-17T17:23:36.790Z,101625.06
2022-09-17T17:28:43.371Z,101636.28
2022-09-17T17:33:46.343Z,101645.84
2022-09-17T17:38:50.761Z,101639.91
2022-09-17T17:43:54.481Z,101636.38
2022-09-17T17:48:58.167Z,101626.25
2022-09-17T17:54:02.455Z,101644.59
2022-09-17T17:59:05.385Z,101644.53
2022-09-17T18:04:09.573Z,101648.91
2022-09-17T18:09:13.939Z,101644.88
2022-09-17T18:14:17.130Z,101650.72
2022-09-17T18:19:20.177Z,101659.59
2022-09-17T18:24:24.681Z,101672.69
2022-09-17T18:29:27.665Z,101681.28
2022-09-17T18:34:32.226Z,101696.47
2022-09-17T18:44:59.817Z,101667.50
2022-09-17T18:50:02.744Z,101670.09
2022-09-17T18:55:22.015Z,101672.22
2022-09-17T19:00:25.069Z,101676.19
2022-09-17T19:05:28.528Z,101685.63
2022-09-17T19:10:33.647Z,101685.38
2022-09-17T19:15:39.218Z,101692.22
2022-09-17T19:20:42.405Z,101676.53
2022-09-17T19:25:47.219Z,101701.47
2022-09-17T19:30:50.944Z,101683.13
2022-09-17T19:36:00.574Z,101697.59
2022-09-17T19:41:10.995Z,101712.34
2022-09-17T19:46:15.980Z,101711.06
2022-09-17T19:51:20.078Z,101707.28
2022-09-17T19:56:25.787Z,101699.59
2022-09-17T20:01:28.940Z,101700.63
2022-09-17T20:06:34.272Z,101696.44
2022-09-17T20:11:41.222Z,101689.97
2022-09-17T20:16:45.217Z,101694.59
2022-09-17T20:21:48.205Z,101682.00
2022-09-17T20:26:52.561Z,101687.19
2022-09-17T20:31:55.561Z,101721.56
2022-09-17T20:37:12.679Z,101711.50
2022-09-17T20:42:19.889Z,101697.28
2022-09-17T20:47:22.797Z,101708.72
2022-09-17T20:52:25.686Z,101697.28
2022-09-17T20:57:31.629Z,101714.06
2022-09-17T21:02:34.547Z,101713.78
2022-09-17T21:07:37.520Z,101731.13
2022-09-17T21:12:41.892Z,101725.59
2022-09-17T21:17:45.467Z,101706.38
2022-09-17T21:22:48.354Z,101725.81
2022-09-17T21:27:52.618Z,101727.53
2022-09-17T21:32:55.691Z,101722.19
2022-09-17T21:37:58.941Z,101728.78
2022-09-17T21:43:03.378Z,101726.97
2022-09-17T21:48:11.193Z,101717.34
2022-09-17T21:53:14.562Z,101715.34
2022-09-17T21:58:18.859Z,101708.50
2022-09-17T22:03:25.328Z,101719.06
2022-09-17T22:08:28.382Z,101732.38
2022-09-17T22:13:33.410Z,101734.81
2022-09-17T22:18:42.446Z,101718.59
2022-09-17T22:23:45.654Z,101731.81
2022-09-17T22:28:51.301Z,101716.16
2022-09-17T22:33:54.244Z,101716.59
2022-09-17T22:38:59.587Z,101714.63
2022-09-17T22:44:05.996Z,101708.66
2022-09-17T22:49:13.342Z,101705.06
2022-09-17T22:54:19.106Z,101689.75
2022-09-17T22:59:23.468Z,101689.75
2022-09-17T23:04:26.857Z,101688.94
2022-09-17T23:09:29.765Z,101694.25
2022-09-17T23:14:34.224Z,101687.91
2022-09-17T23:19:38.899Z,101702.88
2022-09-17T23:24:42.064Z,101700.66
2022-09-17T23:29:46.567Z,101687.16
2022-09-17T23:34:49.837Z,101689.59
2022-09-17T23:39:52.953Z,101678.28
2022-09-17T23:44:57.316Z,101685.16
2022-09-17T23:50:00.335Z,101689.44
2022-09-17T23:55:03.771Z,101671.41
